createdAt,value
2022-11-21T00:02:37.022Z,97244.63
2022-11-21T00:07:39.516Z,97221.59
2022-11-21T00:12:41.972Z,97233.06
2022-11-21T00:17:44.459Z,97225.34
2022-11-21T00:22:47.856Z,97217.13
2022-11-21T00:27:51.656Z,97201.03
2022-11-21T00:32:54.100Z,97198.72
2022-11-21T00:37:56.492Z,97191.91
2022-11-21T00:43:01.646Z,97186.63
2022-11-21T00:48:04.569Z,97177.41
2022-11-21T00:53:07.170Z,97176.72
2022-11-21T00:58:09.605Z,97171.44
2022-11-21T01:03:12.018Z,97172.44
2022-11-21T01:08:14.435Z,97166.34
2022-11-21T01:13:16.961Z,97178.75
2022-11-21T01:18:19.948Z,97182.94
2022-11-21T01:23:22.583Z,97178.31
2022-11-21T01:28:24.975Z,97168.59
2022-11-21T01:33:27.421Z,97159.25
2022-11-21T01:38:29.841Z,97174.25
2022-11-21T01:43:32.694Z,97167.16
2022-11-21T01:48:50.371Z,97174.16
2022-11-21T01:53:59.305Z,97148.13
2022-11-21T01:59:04.949Z,97149.22
2022-11-21T02:04:08.707Z,97138.84
2022-11-21T02:09:11.148Z,97138.09
2022-11-21T02:14:13.605Z,97134.16
2022-11-21T02:19:47.706Z,97134.16
2022-11-21T02:25:06.224Z,97131.78
2022-11-21T02:30:10.712Z,97132.34
2022-11-21T02:35:14.548Z,97138.91
2022-11-21T02:40:22.672Z,97132.81
2022-11-21T02:45:33.682Z,97122.81
2022-11-21T02:50:38.410Z,97130.06
2022-11-21T02:55:41.136Z,97110.41
2022-11-21T03:00:44.290Z,97107.31
2022-11-21T03:05:50.480Z,97098.97
2022-11-21T03:10:52.874Z,97091.34
2022-11-21T03:15:55.598Z,97091.81
2022-11-21T03:20:58.928Z,97071.41
2022-11-21T03:26:01.335Z,97066.81
2022-11-21T03:31:03.833Z,97076.47
2022-11-21T03:36:06.412Z,97090.63
2022-11-21T03:41:28.795Z,97082.06
2022-11-21T03:46:32.971Z,97088.81
2022-11-21T03:51:36.438Z,97087.25
2022-11-21T03:56:41.807Z,97099.97
2022-11-21T04:01:44.296Z,97088.81
2022-11-21T04:06:47.040Z,97090.34
2022-11-21T04:11:49.786Z,97092.16
2022-11-21T04:16:52.203Z,97093.28
2022-11-21T04:21:54.637Z,97082.88
2022-11-21T04:26:57.424Z,97077.06
2022-11-21T04:31:59.822Z,97081.72
2022-11-21T04:37:05.260Z,97082.38
2022-11-21T04:42:09.952Z,97091.22
2022-11-21T04:47:12.360Z,97073.44
2022-11-21T04:52:14.864Z,97072.97
2022-11-21T04:57:17.866Z,97079.81
2022-11-21T05:02:23.493Z,97079.13
2022-11-21T05:07:25.933Z,97079.88
2022-11-21T05:12:47.127Z,97073.78
2022-11-21T05:17:49.799Z,97070.72
2022-11-21T05:22:52.848Z,97077.31
2022-11-21T05:27:58.315Z,97077.75
2022-11-21T05:33:00.810Z,97064.66
2022-11-21T05:38:04.067Z,97076.94
2022-11-21T05:43:25.152Z,97099.53
2022-11-21T05:48:27.579Z,97097.22
2022-11-21T05:53:29.948Z,97108.25
2022-11-21T05:58:32.470Z,97113.63
2022-11-21T06:03:41.732Z,97105.09
2022-11-21T06:08:46.510Z,97102.88
2022-11-21T06:13:52.356Z,97103.81
2022-11-21T06:18:58.603Z,97100.66
2022-11-21T06:24:01.389Z,97102.97
2022-11-21T06:29:03.873Z,97102.97
2022-11-21T06:34:06.305Z,97111.47
2022-11-21T06:39:11.492Z,97113.06
2022-11-21T06:44:13.860Z,97109.41
2022-11-21T06:49:16.263Z,97107.66
2022-11-21T06:54:18.994Z,97113.63
2022-11-21T06:59:21.510Z,97126.72
2022-11-21T07:04:23.904Z,97126.47
2022-11-21T07:09:33.464Z,97111.59
2022-11-21T07:14:36.293Z,97117.59
2022-11-21T07:19:41.043Z,97111.13
2022-11-21T07:24:43.663Z,97114.13
2022-11-21T07:29:46.355Z,97115.50
2022-11-21T07:34:49.244Z,97113.72
2022-11-21T07:39:51.895Z,97110.88
2022-11-21T07:44:54.381Z,97116.25
2022-11-21T07:49:56.789Z,97108.53
2022-11-21T07:55:05.781Z,97117.69
2022-11-21T08:00:09.013Z,97122.47
2022-11-21T08:05:17.448Z,97120.06
2022-11-21T08:10:20.324Z,97120.94
2022-11-21T08:15:22.749Z,97114.00
2022-11-21T08:20:25.159Z,97108.44
2022-11-21T08:25:27.613Z,97104.16
2022-11-21T08:30:30.665Z,97092.03
2022-11-21T08:35:35.443Z,97101.25
2022-11-21T08:40:37.865Z,97106.38
2022-11-21T08:45:40.352Z,97108.69
2022-11-21T08:50:42.859Z,97107.75
2022-11-21T08:55:45.494Z,97098.09
2022-11-21T09:00:48.300Z,97093.25
2022-11-21T09:05:50.990Z,97092.56
2022-11-21T09:10:57.494Z,97085.56
2022-11-21T09:16:32.800Z,97080.75
2022-11-21T09:21:35.402Z,97073.22
2022-11-21T09:26:37.914Z,97077.09
2022-11-21T09:31:40.961Z,97076.94
2022-11-21T09:36:43.552Z,97077.56
2022-11-21T09:41:57.986Z,97078.41
2022-11-21T09:47:30.663Z,97071.78
2022-11-21T09:52:39.726Z,97070.50
2022-11-21T09:57:42.282Z,97059.47
2022-11-21T10:02:44.811Z,97046.88
2022-11-21T10:07:48.384Z,97027.94
2022-11-21T10:13:21.505Z,97022.72
2022-11-21T10:18:43.469Z,97013.06
2022-11-21T10:24:14.866Z,97000.50
2022-11-21T10:29:29.354Z,96990.06
2022-11-21T10:34:37.944Z,96979.88
2022-11-21T10:39:49.071Z,96986.09
2022-11-21T10:45:10.154Z,96980.06
2022-11-21T10:50:40.121Z,96966.28
2022-11-21T10:55:59.700Z,96949.69
2022-11-21T11:01:02.335Z,96939.06
2022-11-21T11:06:04.825Z,96936.03
2022-11-21T11:11:15.036Z,96918.19
2022-11-21T11:16:19.686Z,96903.25
2022-11-21T11:21:25.004Z,96902.22
2022-11-21T11:26:30.005Z,96892.41
2022-11-21T11:31:42.205Z,96889.78
2022-11-21T11:37:00.089Z,96880.28
2022-11-21T11:42:30.451Z,96864.31
2022-11-21T11:47:43.187Z,96855.13
2022-11-21T11:53:02.359Z,96840.97
2022-11-21T11:58:29.204Z,96845.31
2022-11-21T12:04:00.313Z,96836.00
2022-11-21T12:09:11.918Z,96836.09
2022-11-21T12:14:55.749Z,96834.94
2022-11-21T12:19:59.560Z,96826.06
2022-11-21T12:25:02.041Z,96816.13
2022-11-21T12:30:26.016Z,96798.13
2022-11-21T12:35:49.612Z,96780.59
2022-11-21T12:41:32.583Z,96767.88
2022-11-21T12:47:03.404Z,96756.09
2022-11-21T12:52:34.577Z,96743.63
2022-11-21T12:58:06.356Z,96726.91
2022-11-21T13:03:28.132Z,96717.50
2022-11-21T13:08:34.890Z,96694.88
2022-11-21T13:13:41.146Z,96692.38
2022-11-21T13:18:48.267Z,96693.03
2022-11-21T13:23:50.977Z,96691.72
2022-11-21T13:29:12.009Z,96671.56
2022-11-21T13:34:35.254Z,96667.34
2022-11-21T13:39:41.694Z,96659.84
2022-11-21T13:44:44.167Z,96660.44
2022-11-21T13:50:20.471Z,96639.75
2022-11-21T13:55:37.979Z,96628.75
2022-11-21T14:01:07.915Z,96625.25
2022-11-21T14:06:10.544Z,96619.09
2022-11-21T14:11:22.414Z,96627.38
2022-11-21T14:16:34.530Z,96607.28
2022-11-21T14:21:37.362Z,96609.19
2022-11-21T14:26:51.931Z,96600.56
2022-11-21T14:31:55.713Z,96595.44
2022-11-21T14:37:05.017Z,96590.84
2022-11-21T14:42:13.819Z,96589.13
2022-11-21T14:47:26.342Z,96568.94
2022-11-21T14:52:31.776Z,96568.00
2022-11-21T14:57:39.008Z,96554.72
2022-11-21T15:02:42.481Z,96536.97
2022-11-21T15:07:47.789Z,96512.28
2022-11-21T15:13:00.029Z,96503.88
2022-11-21T15:23:35.964Z,96462.44
2022-11-21T15:28:39.602Z,96450.97
2022-11-21T15:34:27.217Z,96440.00
2022-11-21T15:39:23.370Z,96417.50
2022-11-21T15:44:28.849Z,96398.69
2022-11-21T15:49:33.247Z,96387.69
2022-11-21T15:54:53.962Z,96369.94
2022-11-21T15:59:56.464Z,96365.25
2022-11-21T16:04:58.922Z,96355.72
2022-11-21T16:10:01.301Z,96351.03
2022-11-21T16:15:03.880Z,96351.34
2022-11-21T16:20:06.691Z,96341.78
2022-11-21T16:25:09.756Z,96339.97
2022-11-21T16:30:13.143Z,96321.44
2022-11-21T16:35:15.806Z,96304.44
2022-11-21T16:40:18.514Z,96283.38
2022-11-21T16:45:21.188Z,96288.94
2022-11-21T16:50:23.618Z,96300.47
2022-11-21T16:55:26.193Z,96286.13
2022-11-21T17:00:29.359Z,96273.13
2022-11-21T17:05:31.803Z,96271.03
2022-11-21T17:10:34.351Z,96272.84
2022-11-21T17:15:36.789Z,96258.41
2022-11-21T17:20:39.264Z,96260.19
2022-11-21T17:25:41.684Z,96242.41
2022-11-21T17:30:44.288Z,96252.28
2022-11-21T17:35:47.099Z,96243.59
2022-11-21T17:41:00.723Z,96206.97
2022-11-21T17:46:10.189Z,96215.97
2022-11-21T17:51:15.396Z,96221.16
2022-11-21T17:56:23.786Z,96207.31
2022-11-21T18:01:27.077Z,96195.63
2022-11-21T18:06:41.115Z,96191.88
2022-11-21T18:11:43.829Z,96182.16
2022-11-21T18:16:52.763Z,96190.53
2022-11-21T18:21:55.958Z,96179.88
2022-11-21T18:26:58.383Z,96175.38
2022-11-21T18:32:00.790Z,96183.47
2022-11-21T18:37:03.278Z,96193.97
2022-11-21T18:42:05.769Z,96192.16
2022-11-21T18:47:19.602Z,96184.84
2022-11-21T18:52:25.735Z,96178.97
2022-11-21T18:57:28.107Z,96167.81
2022-11-21T19:02:30.774Z,96162.72
2022-11-21T19:07:33.318Z,96153.38
2022-11-21T19:12:39.498Z,96151.88
2022-11-21T19:17:42.543Z,96143.78
2022-11-21T19:22:45.128Z,96144.97
2022-11-21T19:27:47.663Z,96126.94
2022-11-21T19:32:50.548Z,96120.16
2022-11-21T19:37:53.341Z,96122.13
2022-11-21T19:42:56.106Z,96121.97
2022-11-21T19:47:59.119Z,96116.13
2022-11-21T19:53:04.517Z,96114.59
2022-11-21T19:58:07.064Z,96114.03
2022-11-21T20:03:09.981Z,96106.78
2022-11-21T20:08:17.695Z,96109.81
2022-11-21T20:13:21.033Z,96110.41
2022-11-21T20:18:23.637Z,96109.66
2022-11-21T20:23:26.106Z,96115.81
2022-11-21T20:28:28.688Z,96120.91
2022-11-21T20:33:35.883Z,96116.13
2022-11-21T20:38:38.391Z,96122.69
2022-11-21T20:44:24.483Z,96129.88
2022-11-21T20:49:03.438Z,96125.22
2022-11-21T20:54:05.976Z,96107.91
2022-11-21T20:59:08.583Z,96099.22
2022-11-21T21:04:11.525Z,96107.94
2022-11-21T21:09:16.327Z,96109.81
2022-11-21T21:14:22.002Z,96098.50
2022-11-21T21:19:24.543Z,96093.59
2022-11-21T21:24:27.810Z,96085.47
2022-11-21T21:29:30.585Z,96083.50
2022-11-21T21:34:33.541Z,96085.91
2022-11-21T21:39:39.138Z,96092.78
2022-11-21T21:44:41.824Z,96079.72
2022-11-21T21:49:44.215Z,96080.66
2022-11-21T21:54:46.918Z,96064.41
2022-11-21T21:59:49.620Z,96063.78
2022-11-21T22:04:52.561Z,96079.72
2022-11-21T22:09:55.596Z,96082.44
2022-11-21T22:14:59.180Z,96078.66
2022-11-21T22:20:01.633Z,96087.63
2022-11-21T22:25:04.518Z,96106.38
2022-11-21T22:30:10.626Z,96087.16
2022-11-21T22:35:13.039Z,96096.94
2022-11-21T22:40:15.834Z,96090.34
2022-11-21T22:45:18.325Z,96087.16
2022-11-21T22:50:20.779Z,96094.13
2022-11-21T22:55:26.134Z,96086.59
2022-11-21T23:00:31.339Z,96080.28
2022-11-21T23:05:35.986Z,96078.91
2022-11-21T23:10:38.351Z,96079.94
2022-11-21T23:15:40.707Z,96061.13
2022-11-21T23:20:43.773Z,96032.84
2022-11-21T23:25:46.536Z,96021.44
2022-11-21T23:30:50.362Z,96020.50
2022-11-21T23:35:52.810Z,96035.97
2022-11-21T23:40:55.405Z,96036.75
2022-11-21T23:45:58.068Z,96043.69
2022-11-21T23:51:00.671Z,96042.47
2022-11-21T23:56:03.023Z,96045.31
